»·PEaware :: N232FD KOXR-KAVX

N232FD :: KOXR-KAVX

FLIGHT INFORMATION

Flight Status: Arrived
Operator: Privately registered:
United States
More flights under this callsign
Pilot: Anonymous 30260 (30260)
Aircraft: AERMACCHI WARRIOR
(F260)
More flights by this aircraft type
Origin: KOXR Oxnard
United States
Destination: KAVX Catalina
United States
More flights between these airports :: More routes between these airports
Route: VTU V208 SXC
File this flight plan on PilotEdge
Remarks:
Altitude:
(Current/Filed)
5,000ft
Speed:
(Current/Filed)
172kts
Departed: 04-Oct-20 12:10 PM
Arrived: 04-Oct-20 12:48 PM
Distance/Time
Traveled:
62nm/0:38
Distance/Time
To Go:
Arrived

Flight Plot

Page will automatically refresh every two minutes.


Map Options




Map Legend


Flown Route
Filed Route
Departure Airport
Arrival Airport
Navaid (VOR, NDB)
Fix

Horizontal Profiles

Position Reports

Time Latitude Longitude Heading Altitude Ground
Speed
04-Oct-20 11:25 34.199051 -119.205658 0 38ft 0kts
04-Oct-20 11:26 34.199051 -119.205658 0 38ft 0kts
04-Oct-20 11:26 34.199051 -119.205658 0 38ft 0kts
04-Oct-20 11:27 34.199051 -119.205658 0 38ft 0kts
04-Oct-20 11:29 34.199051 -119.205658 0 38ft 0kts
04-Oct-20 11:29 34.199051 -119.205658 0 38ft 0kts
04-Oct-20 11:30 34.199051 -119.205658 0 38ft 0kts
04-Oct-20 11:31 34.199051 -119.205658 0 38ft 0kts
04-Oct-20 11:32 34.199051 -119.205658 0 38ft 0kts
04-Oct-20 11:33 34.199051 -119.205658 0 38ft 0kts
04-Oct-20 11:34 34.199051 -119.205658 0 38ft 0kts
04-Oct-20 11:35 34.199051 -119.205658 0 38ft 0kts
04-Oct-20 11:36 34.199051 -119.205658 359 38ft 0kts
04-Oct-20 11:37 34.199051 -119.205658 359 38ft 0kts
04-Oct-20 11:38 34.199051 -119.205658 359 38ft 0kts
04-Oct-20 11:39 34.199051 -119.205658 359 38ft 0kts
04-Oct-20 11:40 34.199051 -119.205658 359 38ft 0kts
04-Oct-20 11:41 34.199051 -119.205658 359 38ft 0kts
04-Oct-20 11:42 34.199051 -119.205658 359 38ft 0kts
04-Oct-20 11:43 34.199051 -119.205658 359 38ft 0kts
04-Oct-20 11:44 34.199051 -119.205658 359 38ft 0kts
04-Oct-20 11:45 34.199051 -119.205658 359 38ft 0kts
04-Oct-20 11:46 34.199051 -119.205658 359 38ft 0kts
04-Oct-20 11:47 34.199051 -119.205658 359 38ft 0kts
04-Oct-20 11:48 34.199051 -119.205658 359 38ft 0kts
04-Oct-20 11:49 34.199051 -119.205658 359 38ft 0kts
04-Oct-20 11:50 34.199051 -119.205658 359 38ft 0kts
04-Oct-20 11:51 34.199051 -119.205658 359 38ft 0kts
04-Oct-20 11:52 34.199051 -119.205658 359 38ft 0kts
04-Oct-20 11:53 34.199051 -119.205658 359 38ft 0kts
04-Oct-20 11:54 34.199051 -119.205658 359 38ft 0kts
04-Oct-20 11:55 34.199051 -119.205658 359 38ft 0kts
04-Oct-20 11:56 34.199051 -119.205658 359 38ft 0kts
04-Oct-20 11:57 34.199051 -119.205658 359 38ft 0kts
04-Oct-20 11:58 34.199051 -119.205658 359 38ft 0kts
04-Oct-20 11:59 34.199051 -119.205658 359 38ft 0kts
04-Oct-20 12:00 34.199051 -119.205658 359 38ft 0kts
04-Oct-20 12:01 34.199051 -119.205658 359 38ft 0kts
04-Oct-20 12:02 34.199542 -119.205609 22 38ft 8kts
04-Oct-20 12:03 34.199762 -119.202181 90 39ft 12kts
04-Oct-20 12:04 34.199736 -119.198362 89 43ft 10kts
04-Oct-20 12:05 34.199753 -119.197284 268 43ft 0kts
04-Oct-20 12:06 34.199753 -119.197284 267 43ft 0kts
04-Oct-20 12:07 34.199753 -119.197284 268 43ft 0kts
04-Oct-20 12:08 34.200086 -119.197534 358 43ft 6kts
04-Oct-20 12:09 34.200991 -119.212877 269 338ft 101kts
04-Oct-20 12:10 34.199751 -119.251373 266 1762ft 121kts
04-Oct-20 12:11 34.195952 -119.289328 227 3359ft 117kts
04-Oct-20 12:12 34.173372 -119.272590 109 4577ft 121kts
04-Oct-20 12:13 34.160867 -119.230456 105 5006ft 158kts
04-Oct-20 12:14 34.148592 -119.177993 102 5001ft 162kts
04-Oct-20 12:15 34.136579 -119.124983 108 5065ft 162kts
04-Oct-20 12:16 34.120912 -119.072125 110 5004ft 168kts
04-Oct-20 12:17 34.081599 -119.047843 160 4985ft 168kts
04-Oct-20 12:18 34.035089 -119.041747 173 5018ft 168kts
04-Oct-20 12:19 33.988440 -119.036450 171 5020ft 168kts
04-Oct-20 12:20 33.941643 -119.030185 172 5020ft 169kts
04-Oct-20 12:21 33.894712 -119.024326 172 5020ft 169kts
04-Oct-20 12:22 33.847967 -119.018469 172 5019ft 169kts
04-Oct-20 12:23 33.801145 -119.012073 160 5015ft 168kts
04-Oct-20 12:24 33.769472 -118.972675 128 5020ft 165kts
04-Oct-20 12:25 33.739415 -118.930003 128 4978ft 167kts
04-Oct-20 12:26 33.709956 -118.886980 125 4987ft 166kts
04-Oct-20 12:27 33.682067 -118.842498 125 5001ft 166kts
04-Oct-20 12:28 33.653105 -118.798699 128 5020ft 167kts
04-Oct-20 12:29 33.623915 -118.755304 127 5034ft 167kts
04-Oct-20 12:30 33.594708 -118.711507 127 5047ft 167kts
04-Oct-20 12:31 33.565511 -118.667668 127 5047ft 168kts
04-Oct-20 12:32 33.536264 -118.623762 127 5047ft 168kts
04-Oct-20 12:33 33.505694 -118.581276 132 5065ft 167kts
04-Oct-20 12:34 33.470660 -118.543903 136 5035ft 170kts
04-Oct-20 12:35 33.437404 -118.503419 133 4995ft 170kts
04-Oct-20 12:36 33.405345 -118.462370 130 5031ft 167kts
04-Oct-20 12:37 33.390934 -118.418165 70 4687ft 149kts
04-Oct-20 12:38 33.429452 -118.411831 5 4030ft 149kts
04-Oct-20 12:39 33.469592 -118.408245 5 3529ft 141kts
04-Oct-20 12:40 33.505327 -118.413760 321 3433ft 124kts
04-Oct-20 12:41 33.531857 -118.424921 65 3368ft 113kts
04-Oct-20 12:42 33.510727 -118.407572 160 3317ft 106kts
04-Oct-20 12:43 33.482749 -118.403669 182 2729ft 101kts
04-Oct-20 12:44 33.456582 -118.406903 185 2332ft 89kts
04-Oct-20 12:45 33.431294 -118.409814 165 2301ft 93kts
04-Oct-20 12:46 33.410526 -118.406472 237 1673ft 83kts
04-Oct-20 12:47 33.404444 -118.414988 172 1543ft 7kts
04-Oct-20 12:48 33.403494 -118.415220 237 1546ft 0kts
04-Oct-20 12:49 33.403494 -118.415220 238 1546ft 0kts
04-Oct-20 12:50 33.403494 -118.415220 238 1546ft 0kts

Navigation Log

Ident Type
Flight plan parsing failed, navigation log unavailable